Time;durP1;ratioP1;P1;durP2;ratioP2;P2;SDS_P1;SDS_P2;PMS_P1;PMS_P2;Temp;Humidity;BMP_temperature;BMP_pressure;BME280_temperature;BME280_humidity;BME280_pressure;Samples;Min_cycle;Max_cycle;Signal;HPM_P1;HPM_P2
2022/02/20 00:01:05;;;;;;;4.77;1.70;;;10.00;42.00;;;;;;5035925;28;20432;-44
2022/02/20 00:03:32;;;;;;;4.67;1.50;;;10.10;41.90;;;;;;5036093;28;20197;-46
2022/02/20 00:05:57;;;;;;;5.30;1.60;;;9.80;43.30;;;;;;5049564;28;20189;-49
2022/02/20 00:08:23;;;;;;;5.37;1.53;;;9.70;44.10;;;;;;5040936;28;20474;-45
2022/02/20 00:10:48;;;;;;;2.30;1.00;;;9.30;44.90;;;;;;5040717;28;20237;-43
2022/02/20 00:13:15;;;;;;;5.70;1.23;;;9.40;45.70;;;;;;5033630;28;20226;-46
2022/02/20 00:15:41;;;;;;;2.93;1.00;;;9.40;46.10;;;;;;5036648;28;20687;-44
2022/02/20 00:18:06;;;;;;;3.33;1.50;;;9.50;45.90;;;;;;5042069;28;20432;-44
2022/02/20 00:20:32;;;;;;;4.70;1.00;;;9.10;46.40;;;;;;5042138;28;20276;-45
2022/02/20 00:23:00;;;;;;;2.60;1.57;;;9.10;47.00;;;;;;5048874;28;20195;-47
2022/02/20 00:25:30;;;;;;;3.27;1.20;;;9.10;47.40;;;;;;5045870;28;20180;-46
2022/02/20 00:27:55;;;;;;;7.20;1.47;;;9.20;48.30;;;;;;5039126;28;20449;-45
2022/02/20 00:30:21;;;;;;;4.30;1.30;;;9.30;48.40;;;;;;5046499;28;20482;-43
2022/02/20 00:32:47;;;;;;;3.30;1.40;;;9.20;48.60;;;;;;5046659;28;20213;-43
2022/02/20 00:35:12;;;;;;;3.00;1.10;;;9.40;48.60;;;;;;5047657;28;20196;-43
2022/02/20 00:37:38;;;;;;;2.37;0.93;;;9.50;48.40;;;;;;5044105;28;20235;-45
2022/02/20 00:40:05;;;;;;;2.00;1.17;;;9.70;47.60;;;;;;5043632;28;20659;-45
2022/02/20 00:42:31;;;;;;;4.40;3.10;;;9.80;46.90;;;;;;5041473;28;20988;-45
2022/02/20 00:44:57;;;;;;;2.10;1.37;;;9.80;47.20;;;;;;5043165;28;20436;-45
2022/02/20 00:47:22;;;;;;;2.10;1.10;;;9.60;47.90;;;;;;5044812;28;20207;-46
2022/02/20 00:49:48;;;;;;;1.67;1.47;;;9.30;48.30;;;;;;5050314;28;20216;-45
2022/02/20 00:52:13;;;;;;;9.93;1.20;;;9.30;48.90;;;;;;5048676;28;20652;-43
2022/02/20 00:54:39;;;;;;;1.20;0.90;;;9.10;49.80;;;;;;5045903;28;20215;-44
2022/02/20 00:57:05;;;;;;;3.80;1.30;;;9.20;50.20;;;;;;5040420;28;20204;-44
2022/02/20 00:59:30;;;;;;;3.17;1.30;;;9.20;50.40;;;;;;5041750;28;20221;-44
2022/02/20 01:01:56;;;;;;;4.40;1.67;;;8.90;50.60;;;;;;5048240;28;20267;-46
2022/02/20 01:04:22;;;;;;;2.80;0.80;;;8.70;51.20;;;;;;5044086;28;20280;-44
2022/02/20 01:06:47;;;;;;;5.37;1.40;;;8.90;51.40;;;;;;5041939;28;20204;-44
2022/02/20 01:09:13;;;;;;;3.50;1.00;;;8.70;51.40;;;;;;5041116;28;20431;-43
2022/02/20 01:11:38;;;;;;;4.00;1.10;;;8.60;51.90;;;;;;5050963;28;20232;-46
2022/02/20 01:14:04;;;;;;;4.53;1.97;;;8.50;52.10;;;;;;5048888;28;20220;-44
2022/02/20 01:16:30;;;;;;;4.30;1.10;;;8.80;52.30;;;;;;5056509;28;20664;-43
2022/02/20 01:18:55;;;;;;;3.33;1.43;;;8.80;52.10;;;;;;5042992;28;20200;-44
2022/02/20 01:21:21;;;;;;;2.03;1.37;;;8.90;51.90;;;;;;5043897;28;20648;-43
2022/02/20 01:23:47;;;;;;;3.33;1.20;;;8.90;52.00;;;;;;5040961;28;20193;-46
2022/02/20 01:26:12;;;;;;;2.33;1.27;;;9.00;51.70;;;;;;5043947;28;20203;-44
2022/02/20 01:28:38;;;;;;;3.60;1.63;;;8.80;52.20;;;;;;5039757;28;20274;-45
2022/02/20 01:31:03;;;;;;;2.50;1.30;;;8.80;52.40;;;;;;5042078;28;20216;-44
2022/02/20 01:33:29;;;;;;;2.67;1.00;;;8.80;52.60;;;;;;5044425;28;20192;-43
2022/02/20 01:35:55;;;;;;;2.40;1.40;;;8.70;52.40;;;;;;5038835;28;20196;-46
2022/02/20 01:38:21;;;;;;;3.17;1.13;;;8.70;52.80;;;;;;5042588;28;20770;-46
2022/02/20 01:40:47;;;;;;;4.13;1.00;;;8.60;53.20;;;;;;5042696;28;20440;-43
2022/02/20 01:43:13;;;;;;;3.27;1.10;;;8.70;53.10;;;;;;5043907;28;20232;-43
2022/02/20 01:45:40;;;;;;;5.23;1.07;;;8.80;53.20;;;;;;5045973;28;20443;-49
2022/02/20 01:48:06;;;;;;;2.77;1.33;;;8.80;53.20;;;;;;5052597;28;20435;-43
2022/02/20 01:50:32;;;;;;;2.17;1.00;;;8.70;53.20;;;;;;5040108;28;20574;-46
2022/02/20 01:52:58;;;;;;;4.70;1.40;;;8.60;53.60;;;;;;5038768;28;20550;-47
2022/02/20 01:55:24;;;;;;;2.37;1.23;;;8.70;53.60;;;;;;5044609;28;20522;-43
2022/02/20 01:57:50;;;;;;;5.80;1.50;;;8.40;53.80;;;;;;5041852;28;20624;-44
2022/02/20 02:00:18;;;;;;;6.10;1.13;;;8.50;54.00;;;;;;5039013;28;20462;-46
2022/02/20 02:02:44;;;;;;;3.73;1.20;;;8.70;54.00;;;;;;5034509;28;20585;-43
2022/02/20 02:05:10;;;;;;;2.13;1.30;;;8.70;53.80;;;;;;5032023;28;20447;-44
2022/02/20 02:07:36;;;;;;;2.43;1.10;;;8.60;53.70;;;;;;5045308;28;20443;-45
2022/02/20 02:10:03;;;;;;;5.33;1.03;;;8.50;53.90;;;;;;5038961;28;20224;-43
2022/02/20 02:12:28;;;;;;;4.13;1.63;;;8.70;54.10;;;;;;5044620;28;20228;-43
2022/02/20 02:14:59;;;;;;;4.07;1.40;;;8.50;54.20;;;;;;5041812;28;20438;-43
2022/02/20 02:17:25;;;;;;;3.03;1.70;;;8.50;54.50;;;;;;5046850;28;20238;-43
2022/02/20 02:19:51;;;;;;;4.53;1.10;;;8.60;54.50;;;;;;5045051;28;20451;-46
2022/02/20 02:22:23;;;;;;;5.90;1.20;;;8.70;54.30;;;;;;5039476;28;21224;-44
2022/02/20 02:24:50;;;;;;;2.30;1.20;;;8.30;54.40;;;;;;5039539;28;20193;-44
2022/02/20 02:27:17;;;;;;;5.10;1.50;;;8.30;55.00;;;;;;5037200;28;21485;-45
2022/02/20 02:29:44;;;;;;;2.07;1.00;;;8.40;55.00;;;;;;5044942;28;20431;-44
2022/02/20 02:32:10;;;;;;;3.67;1.30;;;8.60;54.90;;;;;;5038206;28;20534;-43
2022/02/20 02:34:36;;;;;;;3.37;1.50;;;8.60;54.50;;;;;;5040570;28;20445;-44
2022/02/20 02:37:03;;;;;;;3.83;1.27;;;8.60;54.50;;;;;;5042385;28;20494;-44
2022/02/20 02:39:28;;;;;;;3.33;1.40;;;8.40;54.40;;;;;;5040531;28;20469;-42
2022/02/20 02:41:54;;;;;;;3.50;1.07;;;8.40;55.10;;;;;;5040563;28;20475;-44
2022/02/20 02:44:20;;;;;;;4.10;1.27;;;8.70;55.00;;;;;;5044411;28;20244;-48
2022/02/20 02:46:45;;;;;;;1.83;1.53;;;8.90;54.50;;;;;;5044231;28;20204;-46
2022/02/20 02:49:11;;;;;;;5.37;1.30;;;8.80;54.20;;;;;;5039252;28;20215;-42
2022/02/20 02:51:37;;;;;;;5.90;1.37;;;8.70;54.60;;;;;;5040658;28;20255;-43
2022/02/20 02:54:11;;;;;;;4.90;1.60;;;8.60;54.80;;;;;;5038343;28;20203;-45
2022/02/20 02:56:37;;;;;;;2.40;0.90;;;8.50;54.90;;;;;;5038619;28;20444;-44
2022/02/20 02:59:04;;;;;;;6.80;1.33;;;8.60;55.10;;;;;;5039831;28;20450;-44
2022/02/20 03:01:30;;;;;;;4.80;0.83;;;8.80;55.30;;;;;;5042778;28;20220;-43
2022/02/20 03:03:56;;;;;;;2.83;0.87;;;8.90;55.00;;;;;;5040621;28;20927;-45
2022/02/20 03:06:23;;;;;;;1.27;1.00;;;9.20;54.70;;;;;;5039653;28;20534;-43
2022/02/20 03:08:49;;;;;;;4.53;1.27;;;9.00;54.60;;;;;;5045841;28;20431;-46
2022/02/20 03:11:15;;;;;;;3.70;1.30;;;8.90;54.90;;;;;;5048995;28;20489;-43
2022/02/20 03:13:40;;;;;;;4.67;0.80;;;8.70;55.10;;;;;;5045637;28;20188;-43
2022/02/20 03:16:06;;;;;;;4.77;1.00;;;8.80;55.50;;;;;;5048402;28;20428;-45
2022/02/20 03:18:32;;;;;;;2.37;0.90;;;8.90;55.10;;;;;;5039091;28;20215;-47
2022/02/20 03:20:59;;;;;;;3.53;1.00;;;8.90;54.80;;;;;;5048035;28;20432;-43
2022/02/20 03:23:25;;;;;;;3.80;1.00;;;9.00;54.90;;;;;;5038637;28;20193;-43
2022/02/20 03:25:51;;;;;;;8.20;1.30;;;9.10;54.90;;;;;;5037492;28;20440;-45
2022/02/20 03:28:17;;;;;;;4.97;1.00;;;8.90;55.10;;;;;;5030884;28;20436;-44
2022/02/20 03:30:42;;;;;;;2.03;1.03;;;8.90;55.40;;;;;;5043716;28;20224;-43
2022/02/20 03:33:08;;;;;;;2.73;1.30;;;8.90;55.70;;;;;;5037056;28;20435;-43
2022/02/20 03:35:34;;;;;;;3.00;1.03;;;9.20;55.40;;;;;;5042202;28;20193;-44
2022/02/20 03:37:59;;;;;;;4.90;0.80;;;9.00;55.10;;;;;;5044959;28;20192;-44
2022/02/20 03:40:25;;;;;;;3.63;0.90;;;9.00;55.60;;;;;;5039814;28;20197;-45
2022/02/20 03:42:51;;;;;;;2.80;1.20;;;9.20;55.30;;;;;;5047365;28;20232;-44
2022/02/20 03:45:17;;;;;;;2.80;1.50;;;9.00;55.20;;;;;;5036467;28;20276;-46
2022/02/20 03:47:42;;;;;;;1.57;0.90;;;9.00;55.60;;;;;;5041626;28;20713;-44
2022/02/20 03:50:09;;;;;;;0.87;0.67;;;8.90;55.80;;;;;;5044335;28;20484;-45
2022/02/20 03:52:35;;;;;;;3.93;0.90;;;9.10;55.70;;;;;;5029368;28;20193;-46
2022/02/20 03:55:02;;;;;;;2.73;1.10;;;9.00;55.60;;;;;;5046645;28;20432;-42
2022/02/20 03:57:32;;;;;;;7.33;1.20;;;9.20;55.50;;;;;;5042362;28;20427;-42
2022/02/20 04:00:03;;;;;;;2.67;1.43;;;9.30;55.30;;;;;;5036959;28;20443;-43
2022/02/20 04:02:30;;;;;;;1.73;0.80;;;9.10;55.60;;;;;;5044738;28;21006;-45
2022/02/20 04:04:57;;;;;;;4.33;1.10;;;9.20;55.80;;;;;;5047413;28;20435;-46
2022/02/20 04:07:22;;;;;;;1.63;1.00;;;9.10;56.30;;;;;;5042057;28;20427;-47
2022/02/20 04:09:48;;;;;;;1.93;0.90;;;9.40;55.80;;;;;;5040521;28;20427;-47
2022/02/20 04:12:13;;;;;;;1.70;0.90;;;9.40;55.40;;;;;;5034259;28;20193;-43
2022/02/20 04:14:39;;;;;;;3.23;0.70;;;9.30;55.60;;;;;;5040202;28;20194;-43
2022/02/20 04:17:05;;;;;;;2.53;0.90;;;9.30;55.90;;;;;;5042224;28;20197;-45
2022/02/20 04:19:30;;;;;;;1.20;0.67;;;9.60;55.60;;;;;;5038904;28;20218;-47
2022/02/20 04:21:56;;;;;;;1.27;1.00;;;9.80;55.20;;;;;;5050091;28;20189;-46
2022/02/20 04:24:22;;;;;;;2.37;0.90;;;9.90;54.90;;;;;;5044079;28;20284;-43
2022/02/20 04:26:47;;;;;;;1.37;0.73;;;9.90;55.00;;;;;;5046024;28;20193;-42
2022/02/20 04:29:15;;;;;;;4.33;0.70;;;10.00;54.00;;;;;;5039464;28;20204;-44
2022/02/20 04:31:40;;;;;;;1.27;0.80;;;9.70;55.30;;;;;;5040070;28;20629;-43
2022/02/20 04:34:06;;;;;;;2.60;0.80;;;9.70;56.60;;;;;;5038459;28;20446;-44
2022/02/20 04:36:35;;;;;;;5.03;1.57;;;9.90;56.20;;;;;;5043898;28;20195;-43
2022/02/20 04:39:03;;;;;;;2.10;0.70;;;9.70;56.40;;;;;;5042093;28;20880;-43
2022/02/20 04:41:29;;;;;;;2.33;0.80;;;9.50;56.90;;;;;;5042597;28;20446;-42
2022/02/20 04:43:55;;;;;;;1.53;0.63;;;9.40;57.00;;;;;;5042918;28;20490;-44
2022/02/20 04:46:20;;;;;;;0.83;0.60;;;9.40;57.20;;;;;;5041512;28;20443;-44
2022/02/20 04:48:46;;;;;;;2.80;0.80;;;9.10;58.00;;;;;;5041878;28;20193;-43
2022/02/20 04:51:11;;;;;;;1.50;0.97;;;9.20;59.00;;;;;;5042020;28;20637;-43
2022/02/20 04:53:37;;;;;;;2.70;0.80;;;9.10;59.20;;;;;;5041720;28;20192;-43
2022/02/20 04:56:03;;;;;;;1.97;0.80;;;9.00;59.40;;;;;;5035607;28;20193;-43
2022/02/20 04:58:29;;;;;;;0.60;0.60;;;8.90;59.30;;;;;;5038943;28;20192;-43
2022/02/20 05:00:54;;;;;;;2.90;0.80;;;8.90;59.60;;;;;;5047166;28;20196;-43
2022/02/20 05:03:20;;;;;;;0.70;0.50;;;8.60;60.60;;;;;;5044739;28;20301;-43
2022/02/20 05:05:45;;;;;;;1.73;1.00;;;8.70;61.30;;;;;;5042641;28;20569;-43
2022/02/20 05:08:11;;;;;;;1.63;0.60;;;8.50;60.90;;;;;;5044063;28;20197;-42
2022/02/20 05:10:36;;;;;;;2.50;0.80;;;8.70;60.90;;;;;;5050314;28;20582;-43
2022/02/20 05:13:02;;;;;;;1.20;0.70;;;8.70;60.40;;;;;;5043961;28;20263;-43
2022/02/20 05:15:28;;;;;;;1.10;0.80;;;8.80;60.40;;;;;;5041263;28;20200;-45
2022/02/20 05:17:53;;;;;;;2.60;0.70;;;8.90;60.00;;;;;;5050570;28;20212;-44
2022/02/20 05:20:19;;;;;;;1.13;0.70;;;9.00;60.10;;;;;;5042130;28;20205;-44
2022/02/20 05:22:45;;;;;;;1.33;0.60;;;8.90;60.50;;;;;;5041635;28;20208;-45
2022/02/20 05:25:10;;;;;;;0.50;0.40;;;8.90;60.20;;;;;;5042546;28;20204;-44
2022/02/20 05:27:36;;;;;;;3.50;0.60;;;8.90;60.20;;;;;;5042685;28;20200;-44
2022/02/20 05:30:02;;;;;;;2.30;0.90;;;8.90;60.50;;;;;;5040126;28;20299;-43
2022/02/20 05:32:27;;;;;;;0.90;0.73;;;9.00;60.20;;;;;;5040368;28;20584;-43
2022/02/20 05:34:55;;;;;;;0.90;0.70;;;9.00;59.90;;;;;;5042631;28;20447;-43
2022/02/20 05:37:21;;;;;;;0.70;0.60;;;9.00;59.80;;;;;;5041554;28;20204;-43
2022/02/20 05:39:47;;;;;;;1.67;0.90;;;8.90;60.20;;;;;;5040231;28;20525;-44
2022/02/20 05:42:13;;;;;;;1.23;0.70;;;9.10;61.00;;;;;;5035428;28;21508;-43
2022/02/20 05:44:38;;;;;;;1.07;0.73;;;9.20;60.30;;;;;;5042683;28;20442;-43
2022/02/20 05:47:04;;;;;;;1.53;0.60;;;9.30;60.20;;;;;;5034745;28;20428;-47
2022/02/20 05:49:30;;;;;;;0.60;0.60;;;9.20;60.20;;;;;;5037793;28;20194;-44
2022/02/20 05:51:55;;;;;;;1.53;1.13;;;9.00;60.60;;;;;;5049333;28;20529;-46
2022/02/20 05:54:21;;;;;;;1.40;0.60;;;9.10;60.70;;;;;;5048934;28;20863;-43
2022/02/20 05:56:46;;;;;;;0.80;0.70;;;9.10;60.70;;;;;;5045174;28;20197;-43
2022/02/20 05:59:13;;;;;;;0.93;0.70;;;9.00;60.70;;;;;;5034934;28;20589;-45
2022/02/20 06:01:38;;;;;;;0.60;0.60;;;8.80;61.20;;;;;;5045089;28;20197;-43
2022/02/20 06:04:04;;;;;;;1.23;0.83;;;8.80;61.60;;;;;;5042419;28;20485;-43
2022/02/20 06:06:33;;;;;;;1.97;0.80;;;8.80;61.60;;;;;;5036152;28;20197;-44
2022/02/20 06:09:02;;;;;;;1.47;0.73;;;8.70;62.20;;;;;;5037793;28;20481;-43
2022/02/20 06:11:27;;;;;;;3.43;1.00;;;8.80;62.00;;;;;;5044922;28;20530;-45
2022/02/20 06:13:53;;;;;;;1.20;0.83;;;8.80;61.80;;;;;;5045935;28;20431;-43
2022/02/20 06:16:19;;;;;;;0.90;0.70;;;8.90;62.00;;;;;;5043160;28;20571;-43
2022/02/20 06:18:47;;;;;;;1.27;0.80;;;8.90;61.80;;;;;;5043985;28;20200;-43
2022/02/20 06:21:14;;;;;;;1.53;0.70;;;8.90;62.20;;;;;;5040742;28;20497;-44
2022/02/20 06:23:40;;;;;;;1.17;0.77;;;8.90;62.20;;;;;;5038895;28;20447;-42
2022/02/20 06:26:06;;;;;;;1.67;0.90;;;8.90;62.00;;;;;;5043403;28;20445;-44
2022/02/20 06:28:32;;;;;;;4.50;0.80;;;9.00;61.70;;;;;;5040521;28;20827;-44
2022/02/20 06:30:58;;;;;;;3.10;1.00;;;8.80;61.70;;;;;;5044157;28;20494;-43
2022/02/20 06:33:23;;;;;;;1.80;0.77;;;8.80;61.80;;;;;;5038887;28;20463;-44
2022/02/20 06:35:49;;;;;;;0.70;0.63;;;9.00;61.50;;;;;;5042486;28;20189;-44
2022/02/20 06:38:15;;;;;;;2.27;0.90;;;9.00;61.00;;;;;;5040774;28;20905;-43
2022/02/20 06:40:40;;;;;;;2.10;0.83;;;9.00;61.00;;;;;;5042363;28;20201;-44
2022/02/20 06:43:06;;;;;;;2.60;0.70;;;8.90;60.60;;;;;;5036987;28;20236;-44
2022/02/20 06:45:31;;;;;;;0.80;0.60;;;9.10;60.70;;;;;;5038632;28;20584;-47
2022/02/20 06:47:57;;;;;;;0.97;0.60;;;9.10;59.90;;;;;;5044382;28;20195;-43
2022/02/20 06:50:23;;;;;;;2.20;1.17;;;9.20;59.80;;;;;;5044497;28;20224;-44
2022/02/20 06:52:48;;;;;;;0.80;0.50;;;9.10;59.60;;;;;;5046033;28;20202;-43
2022/02/20 06:55:14;;;;;;;1.60;0.70;;;9.10;59.30;;;;;;5048414;28;20348;-43
2022/02/20 06:57:40;;;;;;;0.80;0.70;;;9.20;59.50;;;;;;5049483;28;20722;-43
2022/02/20 07:00:10;;;;;;;1.70;0.70;;;9.10;59.40;;;;;;5043537;28;20198;-44
2022/02/20 07:02:39;;;;;;;0.53;0.53;;;9.10;59.80;;;;;;5046560;28;20458;-43
2022/02/20 07:05:06;;;;;;;1.53;0.70;;;9.30;59.80;;;;;;5044280;28;20431;-43
2022/02/20 07:07:32;;;;;;;1.07;0.60;;;9.30;59.50;;;;;;5047039;28;20445;-43
2022/02/20 07:09:58;;;;;;;1.07;0.80;;;9.30;59.80;;;;;;5039370;28;20547;-43
2022/02/20 07:12:24;;;;;;;0.60;0.60;;;9.40;58.60;;;;;;5046074;28;20517;-45
2022/02/20 07:14:49;;;;;;;1.23;1.10;;;9.40;58.90;;;;;;5044718;28;20227;-44
2022/02/20 07:17:15;;;;;;;0.60;0.50;;;9.50;59.20;;;;;;5037026;28;20197;-45
2022/02/20 07:19:41;;;;;;;0.73;0.73;;;9.60;58.90;;;;;;5042005;28;20534;-43
2022/02/20 07:22:06;;;;;;;0.53;0.50;;;9.30;58.40;;;;;;5040144;28;20189;-44
2022/02/20 07:24:32;;;;;;;1.20;0.50;;;9.40;58.60;;;;;;5046907;28;20212;-43
2022/02/20 07:26:58;;;;;;;1.53;0.80;;;9.30;58.80;;;;;;5049167;28;20568;-43
2022/02/20 07:29:23;;;;;;;0.60;0.50;;;9.20;58.60;;;;;;5048479;28;20196;-43
2022/02/20 07:31:49;;;;;;;5.10;0.70;;;9.00;58.90;;;;;;5043806;28;20228;-43
2022/02/20 07:34:14;;;;;;;0.83;0.70;;;9.00;59.80;;;;;;5047785;28;20192;-45
2022/02/20 07:36:43;;;;;;;1.60;0.60;;;8.90;59.90;;;;;;5051230;28;20668;-43
2022/02/20 07:39:09;;;;;;;0.90;0.60;;;9.10;59.90;;;;;;5046121;28;20660;-43
2022/02/20 07:41:35;;;;;;;1.23;0.67;;;9.10;59.60;;;;;;5011263;28;1095534;-43
2022/02/20 07:44:01;;;;;;;1.30;0.70;;;9.10;59.90;;;;;;5046524;28;20924;-45
2022/02/20 07:46:27;;;;;;;3.93;0.70;;;9.20;59.80;;;;;;5049272;28;20473;-44
2022/02/20 07:48:55;;;;;;;1.10;0.77;;;9.30;59.50;;;;;;5051808;28;20645;-43
2022/02/20 07:51:21;;;;;;;1.20;0.50;;;9.20;59.50;;;;;;5049158;28;20575;-43
2022/02/20 07:53:46;;;;;;;0.80;0.60;;;9.40;59.60;;;;;;5043175;28;20423;-45
2022/02/20 07:56:12;;;;;;;2.27;0.60;;;9.40;59.40;;;;;;5044898;28;20193;-46
2022/02/20 07:58:38;;;;;;;0.70;0.70;;;9.50;59.10;;;;;;5048824;28;20184;-45
2022/02/20 08:01:05;;;;;;;2.10;0.80;;;9.40;59.30;;;;;;5041343;28;21795;-46
2022/02/20 08:03:31;;;;;;;3.47;0.80;;;9.40;59.30;;;;;;5049188;28;20448;-43
2022/02/20 08:05:58;;;;;;;0.90;0.70;;;9.60;59.10;;;;;;5052078;28;20439;-43
2022/02/20 08:08:24;;;;;;;0.73;0.70;;;9.70;58.90;;;;;;5052079;28;20474;-44
2022/02/20 08:10:50;;;;;;;1.77;0.90;;;9.80;58.80;;;;;;5049870;28;21013;-47
2022/02/20 08:13:16;;;;;;;2.40;0.77;;;10.00;57.70;;;;;;5044815;28;20509;-47
2022/02/20 08:15:41;;;;;;;2.20;1.37;;;10.00;57.40;;;;;;5044004;28;20319;-49
2022/02/20 08:18:07;;;;;;;1.10;0.60;;;10.20;57.10;;;;;;5045590;28;20272;-44
2022/02/20 08:20:32;;;;;;;2.90;1.00;;;10.10;56.60;;;;;;5042534;28;20296;-45
2022/02/20 08:22:58;;;;;;;1.20;0.80;;;10.10;56.90;;;;;;5040337;28;20688;-43
2022/02/20 08:25:24;;;;;;;1.03;0.80;;;10.20;56.90;;;;;;5044999;28;20291;-44
2022/02/20 08:27:50;;;;;;;1.33;0.60;;;10.20;57.30;;;;;;5045970;28;20275;-45
2022/02/20 08:30:15;;;;;;;0.83;0.73;;;10.10;56.70;;;;;;5048866;28;20221;-45
2022/02/20 08:32:41;;;;;;;1.27;0.63;;;10.20;56.90;;;;;;5044877;28;20193;-44
2022/02/20 08:35:08;;;;;;;0.67;0.60;;;10.50;56.40;;;;;;5040552;28;21993;-47
2022/02/20 08:37:46;;;;;;;3.70;1.97;;;10.40;56.20;;;;;;5043869;28;20189;-48
2022/02/20 08:40:14;;;;;;;4.20;1.10;;;10.40;56.00;;;;;;5045185;28;20533;-46
2022/02/20 08:42:41;;;;;;;0.60;0.60;;;10.40;56.10;;;;;;5046442;28;20594;-46
2022/02/20 08:45:07;;;;;;;1.20;0.60;;;10.50;56.00;;;;;;5052923;28;20431;-48
2022/02/20 08:47:33;;;;;;;2.40;0.90;;;10.60;55.70;;;;;;5047392;28;20450;-44
2022/02/20 08:50:00;;;;;;;4.53;0.73;;;10.50;55.80;;;;;;5043412;28;20915;-49
2022/02/20 08:52:26;;;;;;;3.70;0.80;;;10.50;55.60;;;;;;5041284;28;20218;-46
2022/02/20 08:54:52;;;;;;;1.10;1.00;;;10.40;55.80;;;;;;5046518;28;20529;-45
2022/02/20 08:57:18;;;;;;;2.63;1.13;;;10.40;55.70;;;;;;5042765;28;20923;-46
2022/02/20 08:59:44;;;;;;;1.47;1.23;;;10.40;55.90;;;;;;5046575;28;20200;-48
2022/02/20 09:02:11;;;;;;;1.40;0.67;;;10.60;55.80;;;;;;5038352;28;20197;-45
2022/02/20 09:04:37;;;;;;;2.30;0.80;;;10.50;55.50;;;;;;5042018;28;20799;-45
2022/02/20 09:07:04;;;;;;;2.20;1.17;;;10.60;55.40;;;;;;5048441;28;20530;-46
2022/02/20 09:09:30;;;;;;;1.90;1.30;;;10.70;55.40;;;;;;5042515;28;20307;-45
2022/02/20 09:11:56;;;;;;;1.30;0.80;;;10.70;55.20;;;;;;5045336;28;20843;-47
2022/02/20 09:14:21;;;;;;;3.33;1.00;;;10.60;55.30;;;;;;5041377;28;20454;-44
2022/02/20 09:16:48;;;;;;;1.30;0.73;;;10.70;55.50;;;;;;5047257;28;20659;-46
2022/02/20 09:19:14;;;;;;;1.30;0.83;;;10.60;55.30;;;;;;5043255;28;20434;-45
2022/02/20 09:21:40;;;;;;;2.90;1.17;;;10.60;55.40;;;;;;5041134;28;20435;-44
2022/02/20 09:24:06;;;;;;;2.20;1.10;;;10.60;55.40;;;;;;5039733;28;20835;-47
2022/02/20 09:26:31;;;;;;;1.93;0.90;;;10.60;55.50;;;;;;5046273;28;20447;-45
2022/02/20 09:28:57;;;;;;;2.43;0.83;;;10.70;55.00;;;;;;5039954;28;20232;-45
2022/02/20 09:31:23;;;;;;;0.63;0.63;;;10.80;54.90;;;;;;5047165;28;20220;-47
2022/02/20 09:33:48;;;;;;;1.67;0.70;;;10.70;54.80;;;;;;5043101;28;20207;-46
2022/02/20 09:36:15;;;;;;;2.33;1.13;;;10.80;54.70;;;;;;5042600;28;20207;-46
2022/02/20 09:38:41;;;;;;;1.00;0.50;;;10.80;54.80;;;;;;5049146;28;20188;-45
2022/02/20 09:41:08;;;;;;;1.00;0.80;;;10.90;54.60;;;;;;5038882;28;20468;-45
2022/02/20 09:43:35;;;;;;;1.70;0.80;;;10.90;54.60;;;;;;5046555;28;20481;-45
2022/02/20 09:46:01;;;;;;;0.70;0.70;;;10.90;54.50;;;;;;5046750;28;21060;-45
2022/02/20 09:48:27;;;;;;;1.20;0.60;;;11.00;54.20;;;;;;5048224;28;20443;-46
2022/02/20 09:50:53;;;;;;;1.80;0.90;;;11.10;54.20;;;;;;5044526;28;20490;-44
2022/02/20 09:53:18;;;;;;;3.73;0.90;;;11.00;54.10;;;;;;5038270;28;20423;-45
2022/02/20 09:55:45;;;;;;;2.10;0.73;;;11.10;54.30;;;;;;5044517;28;20933;-46
2022/02/20 09:58:13;;;;;;;1.57;0.90;;;11.20;53.70;;;;;;5041432;28;20192;-45
2022/02/20 10:00:55;;;;;;;1.27;0.83;;;11.10;54.00;;;;;;5032609;28;20555;-44
2022/02/20 10:03:32;;;;;;;0.80;0.70;;;11.40;53.90;;;;;;5035019;28;20431;-45
2022/02/20 10:06:03;;;;;;;1.00;0.90;;;11.40;53.50;;;;;;5044442;28;20451;-45
2022/02/20 10:08:46;;;;;;;2.23;0.70;;;11.40;53.40;;;;;;5046976;28;20443;-45
2022/02/20 10:11:32;;;;;;;1.00;0.83;;;11.40;53.50;;;;;;5035571;28;20566;-46
2022/02/20 10:14:03;;;;;;;0.70;0.60;;;11.30;53.70;;;;;;5031337;28;20452;-47
2022/02/20 10:16:31;;;;;;;0.77;0.70;;;11.30;53.80;;;;;;5043120;28;20525;-44
2022/02/20 10:18:57;;;;;;;0.80;0.70;;;11.30;53.50;;;;;;5044359;28;20431;-46
2022/02/20 10:21:29;;;;;;;1.70;0.70;;;11.50;53.50;;;;;;5034943;28;20439;-44
2022/02/20 10:24:03;;;;;;;0.93;0.70;;;11.50;53.30;;;;;;5034135;28;20823;-44
2022/02/20 10:26:29;;;;;;;0.70;0.60;;;11.30;53.50;;;;;;5031550;28;20795;-44
2022/02/20 10:29:04;;;;;;;1.10;1.00;;;11.40;53.80;;;;;;5041615;28;20431;-45
2022/02/20 10:31:45;;;;;;;1.40;1.30;;;11.40;53.70;;;;;;5047484;28;20219;-45
2022/02/20 10:34:19;;;;;;;1.00;0.63;;;11.40;53.80;;;;;;5031490;28;20444;-45
2022/02/20 10:36:59;;;;;;;0.70;0.60;;;11.40;53.70;;;;;;5042945;28;20995;-45
2022/02/20 10:39:38;;;;;;;0.63;0.47;;;11.30;53.60;;;;;;5042812;28;20446;-46
2022/02/20 10:42:15;;;;;;;0.80;0.57;;;11.40;54.00;;;;;;5043725;28;20532;-45
2022/02/20 10:44:51;;;;;;;1.73;0.97;;;11.60;53.90;;;;;;5049123;28;20454;-47
2022/02/20 10:47:17;;;;;;;1.33;0.93;;;11.50;53.50;;;;;;5040456;28;20885;-46
2022/02/20 10:49:43;;;;;;;0.73;0.60;;;11.60;53.30;;;;;;5038500;28;20470;-46
2022/02/20 10:52:23;;;;;;;1.23;0.60;;;11.50;53.50;;;;;;5047978;28;20529;-45
2022/02/20 10:55:03;;;;;;;3.23;0.80;;;11.60;53.60;;;;;;5042912;28;20500;-49
2022/02/20 10:57:37;;;;;;;2.53;0.60;;;11.80;53.20;;;;;;5045667;28;20438;-45
2022/02/20 11:00:12;;;;;;;2.50;0.80;;;11.60;52.90;;;;;;5040313;28;20946;-45
2022/02/20 11:02:37;;;;;;;1.33;0.70;;;11.50;53.30;;;;;;5044197;28;20506;-45
2022/02/20 11:05:04;;;;;;;0.57;0.57;;;11.40;53.20;;;;;;5038313;28;20456;-46
2022/02/20 11:07:29;;;;;;;0.50;0.50;;;11.40;53.70;;;;;;5047219;28;20242;-45
2022/02/20 11:09:55;;;;;;;0.73;0.60;;;11.40;53.40;;;;;;5047260;28;20428;-45
2022/02/20 11:12:21;;;;;;;0.60;0.60;;;11.50;53.50;;;;;;5044960;28;20188;-48
2022/02/20 11:14:49;;;;;;;3.40;0.60;;;11.70;53.20;;;;;;5040118;28;20197;-45
2022/02/20 11:17:16;;;;;;;1.73;0.90;;;11.80;52.80;;;;;;5041656;28;20431;-45
2022/02/20 11:19:42;;;;;;;1.00;0.50;;;12.00;52.80;;;;;;5044220;28;20473;-45
2022/02/20 11:22:11;;;;;;;0.70;0.50;;;12.20;52.70;;;;;;5048808;28;20542;-46
2022/02/20 11:24:39;;;;;;;0.83;0.70;;;12.00;52.20;;;;;;5041285;28;20911;-45
2022/02/20 11:27:05;;;;;;;1.23;0.80;;;12.20;52.40;;;;;;5046496;28;20484;-46
2022/02/20 11:29:31;;;;;;;0.80;0.50;;;12.10;52.10;;;;;;5044995;28;20549;-45
2022/02/20 11:31:58;;;;;;;0.67;0.67;;;12.40;52.00;;;;;;5046106;28;21001;-46
2022/02/20 11:34:24;;;;;;;1.63;0.60;;;12.60;52.00;;;;;;5043081;28;20435;-45
2022/02/20 11:36:56;;;;;;;1.53;0.70;;;12.50;51.40;;;;;;5038379;28;20447;-44
2022/02/20 11:39:23;;;;;;;0.80;0.80;;;12.10;51.30;;;;;;5045081;28;20794;-47
2022/02/20 11:42:09;;;;;;;0.60;0.50;;;12.30;51.90;;;;;;5046121;28;21049;-46
2022/02/20 11:44:54;;;;;;;1.30;0.80;;;12.10;52.00;;;;;;5045070;28;20439;-45
2022/02/20 11:47:35;;;;;;;0.60;0.60;;;12.10;52.80;;;;;;5041965;28;20525;-45
2022/02/20 11:50:27;;;;;;;0.70;0.60;;;12.00;52.50;;;;;;5037659;28;20454;-46
2022/02/20 11:52:58;;;;;;;0.70;0.67;;;12.00;52.50;;;;;;5039661;28;20457;-45
2022/02/20 11:55:27;;;;;;;1.93;0.70;;;12.30;52.80;;;;;;5044001;28;20491;-45
2022/02/20 11:58:11;;;;;;;0.90;0.60;;;12.30;52.20;;;;;;5043198;28;20443;-47
2022/02/20 12:00:38;;;;;;;1.03;0.60;;;12.40;52.10;;;;;;5045648;28;20462;-44
2022/02/20 12:03:20;;;;;;;1.13;0.70;;;12.20;52.00;;;;;;5044113;28;20470;-43
2022/02/20 12:06:07;;;;;;;1.17;0.70;;;12.10;52.30;;;;;;5041400;28;20432;-46
2022/02/20 12:08:36;;;;;;;0.60;0.50;;;12.20;52.20;;;;;;5036842;28;20443;-44
2022/02/20 12:11:37;;;;;;;0.93;0.90;;;12.30;52.20;;;;;;5046049;28;20849;-46
2022/02/20 12:14:28;;;;;;;1.80;0.90;;;12.50;52.40;;;;;;5040742;28;20431;-44
2022/02/20 12:16:57;;;;;;;0.80;0.70;;;12.60;51.90;;;;;;5040885;28;20882;-44
2022/02/20 12:19:31;;;;;;;1.03;0.90;;;12.50;51.70;;;;;;5045987;28;22650;-45
2022/02/20 12:21:57;;;;;;;1.10;0.80;;;12.40;51.90;;;;;;5047328;28;20990;-46
2022/02/20 12:24:36;;;;;;;0.97;0.60;;;12.40;52.00;;;;;;5049291;28;20527;-44
2022/02/20 12:27:04;;;;;;;0.90;0.70;;;12.30;51.70;;;;;;5044260;28;20275;-44
2022/02/20 12:29:48;;;;;;;2.00;1.27;;;12.40;52.00;;;;;;5042501;28;20447;-44
2022/02/20 12:32:22;;;;;;;0.80;0.63;;;12.50;51.90;;;;;;5045238;28;20888;-45
2022/02/20 12:35:00;;;;;;;0.70;0.60;;;12.60;51.80;;;;;;5038639;28;20526;-45
2022/02/20 12:37:48;;;;;;;3.87;2.13;;;12.40;51.70;;;;;;5047946;28;20446;-45
2022/02/20 12:40:26;;;;;;;5.37;2.50;;;12.50;52.10;;;;;;5046678;28;20447;-44
2022/02/20 12:42:57;;;;;;;7.00;2.80;;;12.70;51.70;;;;;;5050156;28;20537;-43
2022/02/20 12:45:24;;;;;;;3.00;1.80;;;12.50;51.80;;;;;;5036928;28;20455;-47
2022/02/20 12:47:53;;;;;;;9.80;6.03;;;12.60;52.00;;;;;;5051541;28;20439;-46
2022/02/20 12:50:20;;;;;;;3.07;1.60;;;12.40;52.10;;;;;;5040673;28;20470;-45
2022/02/20 12:52:46;;;;;;;14.63;7.27;;;12.40;52.60;;;;;;5036141;28;20454;-47
2022/02/20 12:55:15;;;;;;;2.00;0.90;;;12.60;52.40;;;;;;5044614;28;20444;-47